• Join FlightAware (Why Join?)
  • Login
  • US Flag 
12:19PM EST


 

Airport Tracker/Info


-or-


 

Live Flight TrackerFlight Track Log ✈ C-GUFZ ✈ 04-Sep-2013 ✈ CYPK - CYPK

Flight Track Log - Related Links

Times and Time Zones

All times are in EDT time to prevent confusion due to time zone crossing. See the C-GUFZ flight status page for this flight to view local times or setup timezone preferences in your user account.

Time Position Orientation Groundspeed Altitude Reporting Facility
EDT Latitude Longitude Course Direction KTS MPH feet Rate Location/Type
02:53PM 49.2000 -122.7333 168° South 100 115 400  Level Vancouver Center
02:54PM 49.2000 -122.7833 270° West 110 127 1,300 850 Climbing Vancouver Center
02:55PM 49.1833 -122.7500 127° Southeast 100 115 2,100 750 Climbing Vancouver Center
02:56PM 49.2000 -122.7000 63° Northeast 120 138 2,800 650 Climbing Vancouver Center
02:57PM 49.1667 -122.6833 162° South 130 150 3,400 550 Climbing Vancouver Center
02:58PM 49.2161 -122.7100 168° South  Level Estimated
02:58PM 49.1333 -122.6833 180° South 150 173 3,900  Level Vancouver Center
02:59PM 49.0833 -122.6833 180° South 150 173 4,000 50 Climbing Vancouver Center
03:00PM 49.0500 -122.6833 180° South 150 173 4,000  Level Vancouver Center
03:01PM 49.0000 -122.6833 180° South 150 173 4,000 150 Level Vancouver Center
03:02PM 48.9667 -122.7000 198° South 150 173 4,300 550 Climbing Vancouver Center
03:03PM 48.9333 -122.7333 213° Southwest 140 161 5,100 700 Climbing Vancouver Center
03:04PM 48.9000 -122.7667 213° Southwest 130 150 5,700 450 Climbing Vancouver Center
03:05PM 48.8833 -122.8167 243° Southwest 140 161 6,000 150 Climbing Vancouver Center
03:06PM 48.8667 -122.8667 243° Southwest 140 161 6,000  Level Vancouver Center
03:07PM 48.8500 -122.9167 243° Southwest 140 161 6,000  Level Vancouver Center
03:08PM 48.8333 -122.9667 243° Southwest 140 161 6,000  Level Vancouver Center
03:09PM 48.8000 -122.9833 198° South 140 161 6,000 -300 Level Vancouver Center
03:10PM 48.7667 -123.0167 213° Southwest 130 150 5,400 -650 Descending Vancouver Center
03:11PM 48.7333 -123.0667 225° Southwest 150 173 4,700 -650 Descending Vancouver Center
03:12PM 48.6833 -123.1000 204° Southwest 160 184 4,100 -400 Descending Vancouver Center
03:13PM 48.6500 -123.1167 198° South 160 184 3,900 -500 Descending Vancouver Center
03:14PM 48.6167 -123.1500 213° Southwest 150 173 3,100 -700 Descending Vancouver Center
03:15PM 48.5833 -123.1667 198° South 140 161 2,500 -450 Descending Vancouver Center
03:16PM 48.5833 -123.2167 270° West 130 150 2,200 -200 Descending Vancouver Center
03:17PM 48.6000 -123.2667 297° West 110 127 2,100 -350 Descending Vancouver Center
03:18PM 48.6000 -123.3000 270° West 110 127 1,500 -600 Descending Vancouver Center
03:19PM 48.6167 -123.3500 297° West 100 115 900 -500 Descending Vancouver Center
03:20PM 48.6167 -123.4000 270° West 100 115 500  Descending Vancouver Center
03:21PM 48.6333 -123.4167 327° Northwest 100 115 900 650 Climbing Vancouver Center
03:22PM 48.6333 -123.4667 270° West 110 127 1,800 800 Climbing Vancouver Center
03:23PM 48.6500 -123.5167 297° West 120 138 2,500 800 Climbing Vancouver Center
03:24PM 48.6500 -123.5667 270° West 130 150 3,400 850 Climbing Vancouver Center
03:25PM 48.6667 -123.6167 297° West 130 150 4,200 700 Climbing Vancouver Center
03:26PM 48.7000 -123.6167 360° North 130 150 4,800 400 Climbing Vancouver Center
03:27PM 48.7500 -123.6000 12° North 160 184 5,000 100 Climbing Vancouver Center
03:28PM 48.7333 -123.5500 117° Southeast 150 173 5,000  Level Vancouver Center
03:29PM 48.7000 -123.4667 121° Southeast 160 184 5,000  Level Vancouver Center
03:30PM 48.7167 -123.4167 63° Northeast 150 173 5,000  Level Vancouver Center
03:31PM 48.7333 -123.3667 63° Northeast 150 173 5,000  Level Vancouver Center
03:32PM 48.7500 -123.3000 69° East 150 173 5,000  Level Vancouver Center
03:33PM 48.7667 -123.2500 63° Northeast 150 173 5,000  Level Vancouver Center
03:34PM 48.7833 -123.1833 69° East 150 173 5,000  Level Vancouver Center
03:35PM 48.8000 -123.1167 69° East 150 173 5,000  Level Vancouver Center
03:36PM 48.8000 -123.0667 90° East 150 173 5,000  Level Vancouver Center
03:37PM 48.8167 -123.0167 63° Northeast 140 161 5,000  Level Vancouver Center
03:38PM 48.8333 -122.9667 63° Northeast 140 161 5,000  Level Vancouver Center
03:39PM 48.8500 -122.8833 73° East 140 161 5,000  Level Vancouver Center
03:41PM 48.8833 -122.7833 63° Northeast 140 161 5,000  Level Vancouver Center
03:42PM 48.8833 -122.7333 90° East 140 161 5,000  Level Vancouver Center
03:43PM 48.9000 -122.6833 63° Northeast 140 161 5,000  Level Vancouver Center
03:44PM 48.9167 -122.6000 73° East 140 161 5,000  Level Vancouver Center
03:45PM 48.9333 -122.5500 63° Northeast 150 173 5,000  Level Vancouver Center
03:46PM 48.9000 -122.5500 180° South 130 150 5,000  Level Vancouver Center
03:47PM 48.8833 -122.6000 243° Southwest 130 150 5,000  Level Vancouver Center
03:48PM 48.8833 -122.6500 270° West 130 150 5,000  Level Vancouver Center
03:49PM 48.9167 -122.6000 45° Northeast 130 150 5,000  Level Vancouver Center
03:50PM 48.9333 -122.5500 63° Northeast 140 161 5,000  Level Vancouver Center
03:51PM 48.9000 -122.5500 180° South 130 150 5,000  Level Vancouver Center
03:52PM 48.8833 -122.6000 243° Southwest 130 150 5,000  Level Vancouver Center
03:53PM 48.9000 -122.6333 307° West 120 138 5,000 -101 Level Vancouver Center
03:54PM 48.9167 -122.6000 53° Northeast 140 161 4,800 -350 Descending Vancouver Center
03:55PM 48.9500 -122.5500 45° Northeast 150 173 4,300 -397 Descending Vancouver Center
03:56PM 48.9833 -122.5000 45° Northeast 140 161 4,000 -149 Descending Vancouver Center
03:57PM 49.0167 -122.4833 18° North 130 150 4,000  Level Vancouver Center
03:58PM 48.9833 -122.4500 147° Southeast 110 127 4,000 -200 Level Vancouver Center
03:59PM 48.9833 -122.5333 270° West 140 161 3,600 -454 Descending Vancouver Center
04:00PM 48.9667 -122.5833 243° Southwest 160 184 3,100 -300 Descending Vancouver Center
04:01PM 48.9500 -122.6333 243° Southwest 150 173 3,000 -149 Descending Vancouver Center
04:02PM 48.9833 -122.6333 360° North 120 138 2,800 -250 Descending Vancouver Center
04:03PM 49.0000 -122.6000 53° Northeast 130 150 2,500 -200 Descending Vancouver Center
04:04PM 49.0000 -122.5500 90° East 130 150 2,400 -433 Descending Vancouver Center
04:06PM 49.0000 -122.4500 90° East 110 127 1,200 -600 Descending Vancouver Center
04:07PM 49.0000 -122.4000 90° East 100 115 600 -200 Descending Vancouver Center
04:08PM 49.0167 -122.3667 53° Northeast 110 127 800 500 Climbing Vancouver Center
04:09PM 48.9833 -122.3167 135° Southeast 110 127 1,600 704 Climbing Vancouver Center
04:11PM 48.9667 -122.4333 258° West 140 161 2,900 467 Climbing Vancouver Center
04:12PM 48.9500 -122.5000 249° West 150 173 3,000  Climbing Vancouver Center
04:13PM 48.9833 -122.5333 327° Northwest 140 161 2,900  Descending Vancouver Center
04:14PM 49.0167 -122.5500 342° North 140 161 3,000 50 Climbing Vancouver Center
04:15PM 49.0500 -122.5833 327° Northwest 140 161 3,000  Level Vancouver Center
04:16PM 49.0833 -122.6333 316° Northwest 130 150 3,000 -198 Level Vancouver Center
04:17PM 49.1167 -122.6500 342° North 140 161 2,600 -450 Descending Vancouver Center
04:18PM 49.1500 -122.6500 360° North 140 161 2,100 -756 Descending Vancouver Center
04:19PM 49.1833 -122.6500 360° North 130 150 1,100 -850 Descending Vancouver Center
04:20PM 49.2000 -122.6833 307° West 110 127 400 -700 Descending Vancouver Center